Terminal Aerodrome Forecast
Issued by NWS

Home | Current Version | Previous Version | Text Only | Print | Product List | Glossary On
Versions: 1 2 3 4 5 6 7 8 9 10 11 12 13 14 15 16 17 18 19 20 21 22 23 24 25 26 27 28 29 30 31 32
000
FTUS43 KLSX 141732
TAFUIN
TAF
KUIN 141732Z 1418/1518 34006KT 1SM BR OVC004
     FM150000 36004KT P6SM BKN006 OVC012
     FM150600 03004KT 5SM BR VCSH SCT007 OVC010
     FM151000 06005KT 4SM -FZRA BR OVC008=

USA.gov is the U.S. government's official web portal to all federal, state and local government web resources and services.